sensor_id;sensor_type;location;lat;lon;timestamp;pressure;altitude;pressure_sealevel;temperature;humidity
60974;BME280;46846;51.528;5.076;2023-02-19T00:00:02;101306.94;;;8.69;84.51
60974;BME280;46846;51.528;5.076;2023-02-19T00:02:28;101313.97;;;8.70;84.56
60974;BME280;46846;51.528;5.076;2023-02-19T00:04:53;101307.81;;;8.70;84.37
60974;BME280;46846;51.528;5.076;2023-02-19T00:07:18;101316.59;;;8.73;83.97
60974;BME280;46846;51.528;5.076;2023-02-19T00:09:43;101323.69;;;8.71;84.19
60974;BME280;46846;51.528;5.076;2023-02-19T00:12:09;101317.50;;;8.72;84.54
60974;BME280;46846;51.528;5.076;2023-02-19T00:14:34;101318.34;;;8.73;84.36
60974;BME280;46846;51.528;5.076;2023-02-19T00:16:59;101321.00;;;8.73;84.54
60974;BME280;46846;51.528;5.076;2023-02-19T00:19:24;101320.97;;;8.76;84.35
60974;BME280;46846;51.528;5.076;2023-02-19T00:21:50;101321.22;;;8.60;84.77
60974;BME280;46846;51.528;5.076;2023-02-19T00:24:16;101324.69;;;8.66;84.65
60974;BME280;46846;51.528;5.076;2023-02-19T00:26:42;101322.88;;;8.68;84.44
60974;BME280;46846;51.528;5.076;2023-02-19T00:29:11;101323.78;;;8.67;84.22
60974;BME280;46846;51.528;5.076;2023-02-19T00:31:37;101318.38;;;8.71;84.38
60974;BME280;46846;51.528;5.076;2023-02-19T00:34:03;101318.53;;;8.64;84.36
60974;BME280;46846;51.528;5.076;2023-02-19T00:36:29;101318.44;;;8.70;84.35
60974;BME280;46846;51.528;5.076;2023-02-19T00:38:55;101324.56;;;8.73;84.21
60974;BME280;46846;51.528;5.076;2023-02-19T00:41:21;101320.31;;;8.63;84.69
60974;BME280;46846;51.528;5.076;2023-02-19T00:43:48;101327.34;;;8.66;83.10
60974;BME280;46846;51.528;5.076;2023-02-19T00:46:14;101330.97;;;8.60;84.49
60974;BME280;46846;51.528;5.076;2023-02-19T00:48:40;101325.50;;;8.68;84.21
60974;BME280;46846;51.528;5.076;2023-02-19T00:51:05;101316.78;;;8.63;84.02
60974;BME280;46846;51.528;5.076;2023-02-19T00:53:30;101321.13;;;8.67;84.10
60974;BME280;46846;51.528;5.076;2023-02-19T00:55:56;101317.56;;;8.68;84.09
60974;BME280;46846;51.528;5.076;2023-02-19T00:58:21;101334.38;;;8.67;83.77
60974;BME280;46846;51.528;5.076;2023-02-19T01:00:46;101349.34;;;8.71;83.81
60974;BME280;46846;51.528;5.076;2023-02-19T01:03:12;101330.75;;;8.72;83.90
60974;BME280;46846;51.528;5.076;2023-02-19T01:05:37;101335.97;;;8.77;83.85
60974;BME280;46846;51.528;5.076;2023-02-19T01:08:02;101340.41;;;8.77;83.56
60974;BME280;46846;51.528;5.076;2023-02-19T01:10:27;101344.88;;;8.73;83.64
60974;BME280;46846;51.528;5.076;2023-02-19T01:12:53;101352.03;;;8.69;83.88
60974;BME280;46846;51.528;5.076;2023-02-19T01:15:18;101358.13;;;8.76;83.78
60974;BME280;46846;51.528;5.076;2023-02-19T01:17:43;101358.34;;;8.64;83.82
60974;BME280;46846;51.528;5.076;2023-02-19T01:20:08;101359.34;;;8.56;84.46
60974;BME280;46846;51.528;5.076;2023-02-19T01:22:34;101357.50;;;8.60;83.85
60974;BME280;46846;51.528;5.076;2023-02-19T01:24:59;101365.38;;;8.65;84.08
60974;BME280;46846;51.528;5.076;2023-02-19T01:27:24;101370.69;;;8.65;83.36
60974;BME280;46846;51.528;5.076;2023-02-19T01:29:49;101353.03;;;8.62;84.09
60974;BME280;46846;51.528;5.076;2023-02-19T01:32:15;101361.03;;;8.60;84.07
60974;BME280;46846;51.528;5.076;2023-02-19T01:34:40;101363.66;;;8.62;83.84
60974;BME280;46846;51.528;5.076;2023-02-19T01:37:05;101368.13;;;8.58;84.04
60974;BME280;46846;51.528;5.076;2023-02-19T01:39:35;101361.88;;;8.63;83.99
60974;BME280;46846;51.528;5.076;2023-02-19T01:42:00;101366.38;;;8.59;83.82
60974;BME280;46846;51.528;5.076;2023-02-19T01:46:52;101362.00;;;8.56;83.88
60974;BME280;46846;51.528;5.076;2023-02-19T01:49:28;101367.28;;;8.56;83.98
60974;BME280;46846;51.528;5.076;2023-02-19T01:51:55;101367.13;;;8.66;83.83
60974;BME280;46846;51.528;5.076;2023-02-19T01:54:23;101356.59;;;8.63;82.90
60974;BME280;46846;51.528;5.076;2023-02-19T01:56:50;101361.94;;;8.59;83.88
60974;BME280;46846;51.528;5.076;2023-02-19T01:59:15;101360.19;;;8.58;83.77
60974;BME280;46846;51.528;5.076;2023-02-19T02:01:42;101356.63;;;8.59;83.32
60974;BME280;46846;51.528;5.076;2023-02-19T02:04:07;101355.78;;;8.57;84.02
60974;BME280;46846;51.528;5.076;2023-02-19T02:06:42;101362.81;;;8.60;83.73
60974;BME280;46846;51.528;5.076;2023-02-19T02:09:10;101355.72;;;8.60;84.11
60974;BME280;46846;51.528;5.076;2023-02-19T02:11:55;101362.94;;;8.52;84.12
60974;BME280;46846;51.528;5.076;2023-02-19T02:14:22;101362.00;;;8.55;84.39
60974;BME280;46846;51.528;5.076;2023-02-19T02:21:58;101369.03;;;8.57;83.95
60974;BME280;46846;51.528;5.076;2023-02-19T02:27:29;101371.59;;;8.62;83.71
60974;BME280;46846;51.528;5.076;2023-02-19T02:30:11;101364.66;;;8.55;83.93
60974;BME280;46846;51.528;5.076;2023-02-19T02:35:08;101374.28;;;8.60;83.45
60974;BME280;46846;51.528;5.076;2023-02-19T02:37:34;101368.16;;;8.57;83.91
60974;BME280;46846;51.528;5.076;2023-02-19T02:40:01;101369.94;;;8.58;83.79
60974;BME280;46846;51.528;5.076;2023-02-19T02:42:27;101365.72;;;8.43;84.10
60974;BME280;46846;51.528;5.076;2023-02-19T02:44:56;101373.56;;;8.51;83.68
60974;BME280;46846;51.528;5.076;2023-02-19T02:47:44;101374.41;;;8.54;84.02
60974;BME280;46846;51.528;5.076;2023-02-19T02:50:17;101378.75;;;8.58;83.54
60974;BME280;46846;51.528;5.076;2023-02-19T02:52:45;101376.19;;;8.54;84.00
60974;BME280;46846;51.528;5.076;2023-02-19T02:55:32;101386.78;;;8.54;83.91
60974;BME280;46846;51.528;5.076;2023-02-19T02:58:00;101390.38;;;8.50;84.02
60974;BME280;46846;51.528;5.076;2023-02-19T03:00:25;101386.78;;;8.55;83.89
60974;BME280;46846;51.528;5.076;2023-02-19T03:03:12;101385.94;;;8.52;83.84
60974;BME280;46846;51.528;5.076;2023-02-19T03:05:39;101388.59;;;8.48;84.00
60974;BME280;46846;51.528;5.076;2023-02-19T03:10:47;101401.09;;;8.43;84.04
60974;BME280;46846;51.528;5.076;2023-02-19T03:13:15;101400.09;;;8.49;83.98
60974;BME280;46846;51.528;5.076;2023-02-19T03:16:04;101392.16;;;8.47;83.58
60974;BME280;46846;51.528;5.076;2023-02-19T03:18:50;101404.66;;;8.42;84.21
60974;BME280;46846;51.528;5.076;2023-02-19T03:21:36;101398.44;;;8.43;84.06
60974;BME280;46846;51.528;5.076;2023-02-19T03:24:03;101401.00;;;8.48;83.77
60974;BME280;46846;51.528;5.076;2023-02-19T03:26:48;101402.69;;;8.55;83.17
60974;BME280;46846;51.528;5.076;2023-02-19T03:29:18;101399.28;;;8.45;83.82
60974;BME280;46846;51.528;5.076;2023-02-19T03:31:47;101396.59;;;8.47;83.81
60974;BME280;46846;51.528;5.076;2023-02-19T03:34:15;101404.47;;;8.53;82.94
60974;BME280;46846;51.528;5.076;2023-02-19T03:36:42;101401.03;;;8.45;83.70
60974;BME280;46846;51.528;5.076;2023-02-19T03:39:08;101406.31;;;8.48;83.46
60974;BME280;46846;51.528;5.076;2023-02-19T03:41:52;101413.44;;;8.46;83.60
60974;BME280;46846;51.528;5.076;2023-02-19T03:44:37;101408.06;;;8.49;83.68
60974;BME280;46846;51.528;5.076;2023-02-19T03:47:17;101413.44;;;8.46;83.50
60974;BME280;46846;51.528;5.076;2023-02-19T03:55:23;101429.44;;;8.38;83.97
60974;BME280;46846;51.528;5.076;2023-02-19T03:57:55;101425.81;;;8.44;83.43
60974;BME280;46846;51.528;5.076;2023-02-19T04:03:17;101438.38;;;8.32;83.62
60974;BME280;46846;51.528;5.076;2023-02-19T04:05:46;101438.47;;;8.28;84.00
60974;BME280;46846;51.528;5.076;2023-02-19T04:08:15;101443.59;;;8.37;83.64
60974;BME280;46846;51.528;5.076;2023-02-19T04:10:41;101442.75;;;8.35;84.25
60974;BME280;46846;51.528;5.076;2023-02-19T04:13:41;101452.47;;;8.36;83.09
60974;BME280;46846;51.528;5.076;2023-02-19T04:16:03;101450.75;;;8.30;83.89
60974;BME280;46846;51.528;5.076;2023-02-19T04:18:31;101455.94;;;8.40;83.50
60974;BME280;46846;51.528;5.076;2023-02-19T04:20:58;101460.50;;;8.31;83.90
60974;BME280;46846;51.528;5.076;2023-02-19T04:23:24;101461.28;;;8.37;84.04
60974;BME280;46846;51.528;5.076;2023-02-19T04:25:53;101466.66;;;8.33;83.68
60974;BME280;46846;51.528;5.076;2023-02-19T04:28:19;101471.88;;;8.37;83.60
60974;BME280;46846;51.528;5.076;2023-02-19T04:30:44;101468.53;;;8.25;84.09
60974;BME280;46846;51.528;5.076;2023-02-19T04:33:09;101469.38;;;8.27;83.61
60974;BME280;46846;51.528;5.076;2023-02-19T04:35:34;101471.28;;;8.16;84.25
60974;BME280;46846;51.528;5.076;2023-02-19T04:38:00;101470.34;;;8.21;84.27
60974;BME280;46846;51.528;5.076;2023-02-19T04:40:25;101477.41;;;8.21;84.10
60974;BME280;46846;51.528;5.076;2023-02-19T04:42:50;101481.88;;;8.17;84.45
60974;BME280;46846;51.528;5.076;2023-02-19T04:45:16;101482.72;;;8.19;84.17
60974;BME280;46846;51.528;5.076;2023-02-19T04:47:41;101489.84;;;8.16;84.25
60974;BME280;46846;51.528;5.076;2023-02-19T04:50:06;101494.28;;;8.17;84.26
60974;BME280;46846;51.528;5.076;2023-02-19T04:52:32;101494.22;;;8.21;84.30
60974;BME280;46846;51.528;5.076;2023-02-19T04:54:57;101492.50;;;8.16;84.32
60974;BME280;46846;51.528;5.076;2023-02-19T04:57:22;101496.03;;;8.16;84.28
60974;BME280;46846;51.528;5.076;2023-02-19T04:59:47;101504.00;;;8.15;84.14
60974;BME280;46846;51.528;5.076;2023-02-19T05:02:13;101510.19;;;8.15;84.54
60974;BME280;46846;51.528;5.076;2023-02-19T05:04:38;101515.56;;;8.12;84.25
60974;BME280;46846;51.528;5.076;2023-02-19T05:07:03;101519.97;;;8.10;84.32
60974;BME280;46846;51.528;5.076;2023-02-19T05:09:29;101523.53;;;8.11;84.42
60974;BME280;46846;51.528;5.076;2023-02-19T05:11:54;101527.94;;;8.12;84.29
60974;BME280;46846;51.528;5.076;2023-02-19T05:14:19;101532.28;;;8.16;84.32
60974;BME280;46846;51.528;5.076;2023-02-19T05:16:44;101534.97;;;8.13;84.44
60974;BME280;46846;51.528;5.076;2023-02-19T05:19:10;101534.91;;;8.16;84.31
60974;BME280;46846;51.528;5.076;2023-02-19T05:21:36;101538.47;;;8.16;84.30
60974;BME280;46846;51.528;5.076;2023-02-19T05:24:01;101537.56;;;8.19;84.15
60974;BME280;46846;51.528;5.076;2023-02-19T05:26:26;101547.38;;;8.11;84.17
60974;BME280;46846;51.528;5.076;2023-02-19T05:28:52;101544.59;;;8.20;83.97
60974;BME280;46846;51.528;5.076;2023-02-19T05:31:18;101549.97;;;8.17;84.08
60974;BME280;46846;51.528;5.076;2023-02-19T05:33:43;101546.41;;;8.16;83.91
60974;BME280;46846;51.528;5.076;2023-02-19T05:36:11;101561.44;;;8.16;84.08
60974;BME280;46846;51.528;5.076;2023-02-19T05:38:37;101559.69;;;8.15;84.22
60974;BME280;46846;51.528;5.076;2023-02-19T05:41:09;101550.03;;;8.12;83.97
60974;BME280;46846;51.528;5.076;2023-02-19T05:43:35;101550.09;;;8.06;84.08
60974;BME280;46846;51.528;5.076;2023-02-19T05:46:00;101554.41;;;8.13;84.08
60974;BME280;46846;51.528;5.076;2023-02-19T05:48:25;101557.09;;;8.12;83.76
60974;BME280;46846;51.528;5.076;2023-02-19T05:50:51;101568.59;;;8.07;84.13
60974;BME280;46846;51.528;5.076;2023-02-19T05:53:16;101552.63;;;8.14;83.87
60974;BME280;46846;51.528;5.076;2023-02-19T05:55:41;101561.53;;;8.08;83.87
60974;BME280;46846;51.528;5.076;2023-02-19T05:58:07;101557.09;;;8.12;83.98
60974;BME280;46846;51.528;5.076;2023-02-19T06:00:32;101563.28;;;8.11;83.67
60974;BME280;46846;51.528;5.076;2023-02-19T06:02:58;101563.28;;;8.09;84.00
60974;BME280;46846;51.528;5.076;2023-02-19T06:05:23;101557.97;;;8.11;83.82
60974;BME280;46846;51.528;5.076;2023-02-19T06:07:48;101550.03;;;8.12;83.49
60974;BME280;46846;51.528;5.076;2023-02-19T06:10:14;101551.78;;;8.13;83.67
60974;BME280;46846;51.528;5.076;2023-02-19T06:12:40;101559.88;;;8.01;84.14
60974;BME280;46846;51.528;5.076;2023-02-19T06:15:05;101558.91;;;8.06;83.99
60974;BME280;46846;51.528;5.076;2023-02-19T06:17:31;101563.41;;;8.01;83.91
60974;BME280;46846;51.528;5.076;2023-02-19T06:19:57;101572.16;;;8.08;83.36
60974;BME280;46846;51.528;5.076;2023-02-19T06:22:22;101572.16;;;8.06;83.19
60974;BME280;46846;51.528;5.076;2023-02-19T06:24:48;101587.22;;;8.03;83.69
60974;BME280;46846;51.528;5.076;2023-02-19T06:27:13;101583.66;;;8.07;83.40
60974;BME280;46846;51.528;5.076;2023-02-19T06:29:38;101589.94;;;7.97;83.64
60974;BME280;46846;51.528;5.076;2023-02-19T06:32:04;101596.13;;;7.97;83.73
60974;BME280;46846;51.528;5.076;2023-02-19T06:34:30;101602.28;;;8.01;83.58
60974;BME280;46846;51.528;5.076;2023-02-19T06:36:56;101600.66;;;7.86;83.79
60974;BME280;46846;51.528;5.076;2023-02-19T06:39:21;101599.75;;;7.90;83.89
60974;BME280;46846;51.528;5.076;2023-02-19T06:41:46;101607.63;;;7.94;83.95
60974;BME280;46846;51.528;5.076;2023-02-19T06:44:12;101624.50;;;7.89;83.90
60974;BME280;46846;51.528;5.076;2023-02-19T06:46:37;101614.75;;;7.91;83.77
60974;BME280;46846;51.528;5.076;2023-02-19T06:49:03;101610.28;;;7.98;83.91
60974;BME280;46846;51.528;5.076;2023-02-19T06:51:28;101613.06;;;7.82;84.40
60974;BME280;46846;51.528;5.076;2023-02-19T06:53:54;101619.19;;;7.87;84.14
60974;BME280;46846;51.528;5.076;2023-02-19T06:58:44;101622.75;;;7.88;83.99
60974;BME280;46846;51.528;5.076;2023-02-19T07:01:10;101624.44;;;7.92;83.45
60974;BME280;46846;51.528;5.076;2023-02-19T07:03:35;101626.25;;;7.90;83.85
60974;BME280;46846;51.528;5.076;2023-02-19T07:06:00;101625.34;;;7.89;83.91
60974;BME280;46846;51.528;5.076;2023-02-19T07:08:25;101634.25;;;7.85;83.95
60974;BME280;46846;51.528;5.076;2023-02-19T07:10:54;101636.00;;;7.86;83.89
60974;BME280;46846;51.528;5.076;2023-02-19T07:13:20;101640.34;;;7.92;83.79
60974;BME280;46846;51.528;5.076;2023-02-19T07:15:45;101635.00;;;7.97;83.61
60974;BME280;46846;51.528;5.076;2023-02-19T07:18:10;101644.78;;;7.88;83.92
60974;BME280;46846;51.528;5.076;2023-02-19T07:20:36;101647.44;;;7.90;83.65
60974;BME280;46846;51.528;5.076;2023-02-19T07:23:01;101650.19;;;7.80;83.94
60974;BME280;46846;51.528;5.076;2023-02-19T07:25:27;101659.88;;;7.83;83.74
60974;BME280;46846;51.528;5.076;2023-02-19T07:27:52;101668.78;;;7.76;84.10
60974;BME280;46846;51.528;5.076;2023-02-19T07:30:17;101666.09;;;7.79;84.03
60974;BME280;46846;51.528;5.076;2023-02-19T07:32:43;101674.88;;;7.83;84.17
60974;BME280;46846;51.528;5.076;2023-02-19T07:35:09;101679.34;;;7.80;83.85
60974;BME280;46846;51.528;5.076;2023-02-19T07:37:35;101677.53;;;7.81;83.98
60974;BME280;46846;51.528;5.076;2023-02-19T07:40:00;101680.16;;;7.86;83.77
60974;BME280;46846;51.528;5.076;2023-02-19T07:42:25;101696.94;;;7.88;83.69
60974;BME280;46846;51.528;5.076;2023-02-19T07:44:51;101700.53;;;7.80;83.69
60974;BME280;46846;51.528;5.076;2023-02-19T07:47:16;101700.47;;;7.87;83.66
60974;BME280;46846;51.528;5.076;2023-02-19T07:49:41;101710.19;;;7.85;83.65
60974;BME280;46846;51.528;5.076;2023-02-19T07:52:06;101711.09;;;7.84;83.29
60974;BME280;46846;51.528;5.076;2023-02-19T07:54:32;101725.19;;;7.90;83.57
60974;BME280;46846;51.528;5.076;2023-02-19T07:56:57;101733.13;;;7.87;83.60
60974;BME280;46846;51.528;5.076;2023-02-19T07:59:23;101740.22;;;7.87;83.58
60974;BME280;46846;51.528;5.076;2023-02-19T08:01:48;101737.53;;;7.91;83.49
60974;BME280;46846;51.528;5.076;2023-02-19T08:04:32;101735.84;;;7.83;83.46
60974;BME280;46846;51.528;5.076;2023-02-19T08:06:58;101745.53;;;7.84;83.42
60974;BME280;46846;51.528;5.076;2023-02-19T08:09:23;101750.78;;;7.88;83.73
60974;BME280;46846;51.528;5.076;2023-02-19T08:11:48;101754.31;;;7.90;83.47
60974;BME280;46846;51.528;5.076;2023-02-19T08:14:32;101751.69;;;7.89;83.62
60974;BME280;46846;51.528;5.076;2023-02-19T08:16:57;101749.00;;;7.92;83.39
60974;BME280;46846;51.528;5.076;2023-02-19T08:19:23;101746.47;;;7.78;83.75
60974;BME280;46846;51.528;5.076;2023-02-19T08:21:48;101764.06;;;7.87;83.52
60974;BME280;46846;51.528;5.076;2023-02-19T08:24:14;101771.13;;;7.88;83.60
60974;BME280;46846;51.528;5.076;2023-02-19T08:26:39;101768.47;;;7.86;83.31
60974;BME280;46846;51.528;5.076;2023-02-19T08:29:05;101767.63;;;7.83;83.33
60974;BME280;46846;51.528;5.076;2023-02-19T08:31:31;101787.94;;;7.87;83.40
60974;BME280;46846;51.528;5.076;2023-02-19T08:33:56;101775.53;;;7.86;83.37
60974;BME280;46846;51.528;5.076;2023-02-19T08:36:21;101774.69;;;7.87;83.32
60974;BME280;46846;51.528;5.076;2023-02-19T08:38:47;101772.00;;;7.90;83.48
60974;BME280;46846;51.528;5.076;2023-02-19T08:41:12;101772.00;;;7.90;83.46
60974;BME280;46846;51.528;5.076;2023-02-19T08:43:38;101773.78;;;7.88;83.27
60974;BME280;46846;51.528;5.076;2023-02-19T08:46:04;101776.44;;;7.88;83.00
60974;BME280;46846;51.528;5.076;2023-02-19T08:48:30;101772.03;;;7.82;83.35
60974;BME280;46846;51.528;5.076;2023-02-19T08:50:57;101771.22;;;7.78;83.54
60974;BME280;46846;51.528;5.076;2023-02-19T08:53:22;101772.06;;;7.80;83.30
60974;BME280;46846;51.528;5.076;2023-02-19T08:55:48;101773.81;;;7.80;83.44
60974;BME280;46846;51.528;5.076;2023-02-19T08:58:13;101790.66;;;7.74;83.49
60974;BME280;46846;51.528;5.076;2023-02-19T09:00:38;101791.59;;;7.69;83.59
60974;BME280;46846;51.528;5.076;2023-02-19T09:03:04;101800.38;;;7.74;83.48
60974;BME280;46846;51.528;5.076;2023-02-19T09:05:29;101804.81;;;7.70;83.89
60974;BME280;46846;51.528;5.076;2023-02-19T09:07:54;101787.97;;;7.77;83.64
60974;BME280;46846;51.528;5.076;2023-02-19T09:10:20;101802.16;;;7.73;83.76
60974;BME280;46846;51.528;5.076;2023-02-19T09:12:46;101807.44;;;7.75;83.66
60974;BME280;46846;51.528;5.076;2023-02-19T09:15:11;101798.59;;;7.74;83.47
60974;BME280;46846;51.528;5.076;2023-02-19T09:17:36;101803.81;;;7.84;83.39
60974;BME280;46846;51.528;5.076;2023-02-19T09:20:02;101811.81;;;7.80;83.40
60974;BME280;46846;51.528;5.076;2023-02-19T09:22:28;101805.53;;;7.89;83.45
60974;BME280;46846;51.528;5.076;2023-02-19T09:24:53;101802.88;;;7.94;83.19
60974;BME280;46846;51.528;5.076;2023-02-19T09:27:19;101794.91;;;7.99;82.73
60974;BME280;46846;51.528;5.076;2023-02-19T09:29:44;101789.59;;;7.96;82.84
60974;BME280;46846;51.528;5.076;2023-02-19T09:32:10;101791.41;;;7.93;82.97
60974;BME280;46846;51.528;5.076;2023-02-19T09:34:35;101802.84;;;7.96;82.79
60974;BME280;46846;51.528;5.076;2023-02-19T09:37:00;101802.81;;;8.00;82.78
60974;BME280;46846;51.528;5.076;2023-02-19T09:39:26;101810.75;;;8.00;83.15
60974;BME280;46846;51.528;5.076;2023-02-19T09:41:55;101819.66;;;7.96;82.67
60974;BME280;46846;51.528;5.076;2023-02-19T09:44:26;101816.06;;;8.02;82.79
60974;BME280;46846;51.528;5.076;2023-02-19T09:46:53;101823.06;;;8.11;82.49
60974;BME280;46846;51.528;5.076;2023-02-19T09:49:35;101836.31;;;8.09;82.42
60974;BME280;46846;51.528;5.076;2023-02-19T09:54:34;101847.09;;;7.89;82.79
60974;BME280;46846;51.528;5.076;2023-02-19T09:57:01;101843.56;;;7.84;83.24
60974;BME280;46846;51.528;5.076;2023-02-19T09:59:28;101852.38;;;7.89;82.94
60974;BME280;46846;51.528;5.076;2023-02-19T10:02:01;101848.75;;;7.99;82.78
60974;BME280;46846;51.528;5.076;2023-02-19T10:04:27;101857.63;;;8.00;82.48
60974;BME280;46846;51.528;5.076;2023-02-19T10:06:52;101858.50;;;7.97;82.71
60974;BME280;46846;51.528;5.076;2023-02-19T10:09:23;101868.22;;;7.97;82.49
60974;BME280;46846;51.528;5.076;2023-02-19T10:11:50;101870.91;;;7.93;82.82
60974;BME280;46846;51.528;5.076;2023-02-19T10:14:21;101871.78;;;7.91;83.03
60974;BME280;46846;51.528;5.076;2023-02-19T10:16:49;101874.44;;;7.89;82.98
60974;BME280;46846;51.528;5.076;2023-02-19T10:19:15;101887.66;;;7.97;82.73
60974;BME280;46846;51.528;5.076;2023-02-19T10:21:41;101895.59;;;8.00;82.88
60974;BME280;46846;51.528;5.076;2023-02-19T10:24:06;101891.22;;;7.93;82.68
60974;BME280;46846;51.528;5.076;2023-02-19T10:26:32;101909.78;;;7.88;83.22
60974;BME280;46846;51.528;5.076;2023-02-19T10:29:03;101910.66;;;7.93;82.78
60974;BME280;46846;51.528;5.076;2023-02-19T10:31:30;101920.41;;;7.91;83.18
60974;BME280;46846;51.528;5.076;2023-02-19T10:33:56;101920.38;;;7.96;82.97
60974;BME280;46846;51.528;5.076;2023-02-19T10:38:47;101932.75;;;7.94;82.98
60974;BME280;46846;51.528;5.076;2023-02-19T10:41:17;101928.28;;;7.99;82.90
60974;BME280;46846;51.528;5.076;2023-02-19T10:43:49;101930.06;;;7.96;82.98
60974;BME280;46846;51.528;5.076;2023-02-19T10:46:22;101937.16;;;7.93;83.07
60974;BME280;46846;51.528;5.076;2023-02-19T10:51:16;101944.16;;;8.05;82.97
60974;BME280;46846;51.528;5.076;2023-02-19T10:53:49;101944.16;;;8.09;82.41
60974;BME280;46846;51.528;5.076;2023-02-19T10:58:40;101946.88;;;7.96;83.22
60974;BME280;46846;51.528;5.076;2023-02-19T11:01:15;101937.16;;;7.92;83.44
60974;BME280;46846;51.528;5.076;2023-02-19T11:03:42;101936.19;;;8.05;82.53
60974;BME280;46846;51.528;5.076;2023-02-19T11:06:08;101937.06;;;8.07;82.59
60974;BME280;46846;51.528;5.076;2023-02-19T11:08:51;101936.19;;;8.07;82.97
60974;BME280;46846;51.528;5.076;2023-02-19T11:11:23;101946.84;;;8.01;82.94
60974;BME280;46846;51.528;5.076;2023-02-19T11:13:50;101948.63;;;7.96;83.11
60974;BME280;46846;51.528;5.076;2023-02-19T11:16:16;101944.19;;;7.99;82.90
60974;BME280;46846;51.528;5.076;2023-02-19T11:18:41;101947.78;;;7.87;83.70
60974;BME280;46846;51.528;5.076;2023-02-19T11:21:17;101946.91;;;7.91;83.69
60974;BME280;46846;51.528;5.076;2023-02-19T11:23:46;101946.91;;;7.90;83.69
60974;BME280;46846;51.528;5.076;2023-02-19T11:26:19;101943.34;;;7.89;83.79
60974;BME280;46846;51.528;5.076;2023-02-19T11:28:45;101947.75;;;7.95;83.94
60974;BME280;46846;51.528;5.076;2023-02-19T11:33:54;101951.28;;;7.96;83.42
60974;BME280;46846;51.528;5.076;2023-02-19T11:38:45;101938.88;;;7.99;82.51
60974;BME280;46846;51.528;5.076;2023-02-19T11:41:54;101942.41;;;8.03;82.94
60974;BME280;46846;51.528;5.076;2023-02-19T11:49:43;101932.69;;;8.02;82.76
60974;BME280;46846;51.528;5.076;2023-02-19T11:59:32;101931.81;;;7.98;83.01
60974;BME280;46846;51.528;5.076;2023-02-19T12:04:48;101927.34;;;8.10;82.68
60974;BME280;46846;51.528;5.076;2023-02-19T12:10:10;101910.53;;;8.14;83.04
60974;BME280;46846;51.528;5.076;2023-02-19T12:12:51;101911.34;;;8.24;81.94
60974;BME280;46846;51.528;5.076;2023-02-19T12:15:26;101916.63;;;8.24;82.76
60974;BME280;46846;51.528;5.076;2023-02-19T12:26:08;101908.72;;;8.17;82.80
60974;BME280;46846;51.528;5.076;2023-02-19T12:46:31;101929.00;;;8.23;83.35
60974;BME280;46846;51.528;5.076;2023-02-19T12:49:00;101942.38;;;8.12;83.45
60974;BME280;46846;51.528;5.076;2023-02-19T12:59:32;101947.59;;;8.20;83.03
60974;BME280;46846;51.528;5.076;2023-02-19T13:12:38;101970.56;;;8.21;83.01
60974;BME280;46846;51.528;5.076;2023-02-19T13:15:12;101983.84;;;8.16;83.26
60974;BME280;46846;51.528;5.076;2023-02-19T13:17:42;101977.66;;;8.19;82.64
60974;BME280;46846;51.528;5.076;2023-02-19T13:22:42;101993.53;;;8.24;82.74
60974;BME280;46846;51.528;5.076;2023-02-19T13:25:40;101999.75;;;8.18;83.08
60974;BME280;46846;51.528;5.076;2023-02-19T13:28:11;102002.38;;;8.21;82.97
60974;BME280;46846;51.528;5.076;2023-02-19T13:38:07;102001.53;;;8.19;83.78
60974;BME280;46846;51.528;5.076;2023-02-19T13:40:35;102008.59;;;8.21;83.78
60974;BME280;46846;51.528;5.076;2023-02-19T13:43:02;102008.63;;;8.15;83.64
60974;BME280;46846;51.528;5.076;2023-02-19T13:45:36;102011.25;;;8.21;83.64
60974;BME280;46846;51.528;5.076;2023-02-19T13:48:25;102013.06;;;8.13;84.04
60974;BME280;46846;51.528;5.076;2023-02-19T13:50:48;102027.16;;;8.18;83.34
60974;BME280;46846;51.528;5.076;2023-02-19T13:55:57;102030.66;;;8.22;82.79
60974;BME280;46846;51.528;5.076;2023-02-19T14:01:10;102034.22;;;8.24;83.44
60974;BME280;46846;51.528;5.076;2023-02-19T14:03:48;102032.41;;;8.25;83.57
60974;BME280;46846;51.528;5.076;2023-02-19T14:06:17;102029.78;;;8.20;83.56
60974;BME280;46846;51.528;5.076;2023-02-19T14:08:55;102030.72;;;8.14;83.91
60974;BME280;46846;51.528;5.076;2023-02-19T14:14:24;102051.00;;;8.18;83.54
60974;BME280;46846;51.528;5.076;2023-02-19T14:16:51;102047.47;;;8.19;83.36
60974;BME280;46846;51.528;5.076;2023-02-19T14:22:44;102050.13;;;8.23;83.16
60974;BME280;46846;51.528;5.076;2023-02-19T14:24:47;102053.72;;;8.11;83.96
60974;BME280;46846;51.528;5.076;2023-02-19T14:27:13;102040.47;;;8.12;82.48
60974;BME280;46846;51.528;5.076;2023-02-19T14:29:39;102043.06;;;8.18;82.23
60974;BME280;46846;51.528;5.076;2023-02-19T14:32:04;102043.94;;;8.17;81.91
60974;BME280;46846;51.528;5.076;2023-02-19T14:34:30;102045.75;;;8.12;82.15
60974;BME280;46846;51.528;5.076;2023-02-19T14:36:59;102043.97;;;8.14;82.18
60974;BME280;46846;51.528;5.076;2023-02-19T14:39:29;102053.69;;;8.14;82.44
60974;BME280;46846;51.528;5.076;2023-02-19T14:42:00;102054.56;;;8.13;82.32
60974;BME280;46846;51.528;5.076;2023-02-19T14:44:28;102048.38;;;8.14;82.75
60974;BME280;46846;51.528;5.076;2023-02-19T14:47:04;102047.50;;;8.16;82.40
60974;BME280;46846;51.528;5.076;2023-02-19T14:49:36;102036.84;;;8.21;82.27
60974;BME280;46846;51.528;5.076;2023-02-19T14:52:03;102052.78;;;8.23;82.09
60974;BME280;46846;51.528;5.076;2023-02-19T14:54:36;102058.09;;;8.18;82.52
60974;BME280;46846;51.528;5.076;2023-02-19T14:57:04;102044.81;;;8.19;82.20
60974;BME280;46846;51.528;5.076;2023-02-19T14:59:34;102037.75;;;8.20;82.79
60974;BME280;46846;51.528;5.076;2023-02-19T15:02:11;102043.09;;;8.15;82.99
60974;BME280;46846;51.528;5.076;2023-02-19T15:04:37;102035.16;;;8.09;83.17
60974;BME280;46846;51.528;5.076;2023-02-19T15:07:07;102040.44;;;8.07;82.97
60974;BME280;46846;51.528;5.076;2023-02-19T15:09:38;102043.09;;;8.15;82.55